sensor_id;sensor_type;location;lat;lon;timestamp;temperature;humidity
43665;DHT22;29263;48.172;11.484;2023-03-24T00:01:21;12.10;99.90
43665;DHT22;29263;48.172;11.484;2023-03-24T00:03:47;12.10;99.90
43665;DHT22;29263;48.172;11.484;2023-03-24T00:06:16;12.10;99.90
43665;DHT22;29263;48.172;11.484;2023-03-24T00:08:43;12.10;99.90
43665;DHT22;29263;48.172;11.484;2023-03-24T00:11:13;12.10;99.90
43665;DHT22;29263;48.172;11.484;2023-03-24T00:13:41;12.10;99.90
43665;DHT22;29263;48.172;11.484;2023-03-24T00:16:10;12.00;99.90
43665;DHT22;29263;48.172;11.484;2023-03-24T00:18:37;12.10;99.90
43665;DHT22;29263;48.172;11.484;2023-03-24T00:21:04;12.00;99.90
43665;DHT22;29263;48.172;11.484;2023-03-24T00:23:31;12.00;99.90
43665;DHT22;29263;48.172;11.484;2023-03-24T00:28:30;12.00;99.90
43665;DHT22;29263;48.172;11.484;2023-03-24T00:30:58;12.00;99.90
43665;DHT22;29263;48.172;11.484;2023-03-24T00:33:24;12.00;99.90
43665;DHT22;29263;48.172;11.484;2023-03-24T00:35:50;12.00;99.90
43665;DHT22;29263;48.172;11.484;2023-03-24T00:38:16;12.00;99.90
43665;DHT22;29263;48.172;11.484;2023-03-24T00:40:45;12.00;99.90
43665;DHT22;29263;48.172;11.484;2023-03-24T00:43:12;12.00;99.90
43665;DHT22;29263;48.172;11.484;2023-03-24T00:45:38;12.00;99.90
43665;DHT22;29263;48.172;11.484;2023-03-24T00:48:12;12.00;99.90
43665;DHT22;29263;48.172;11.484;2023-03-24T00:50:38;12.00;99.90
43665;DHT22;29263;48.172;11.484;2023-03-24T00:53:04;12.00;99.90
43665;DHT22;29263;48.172;11.484;2023-03-24T00:55:30;12.00;99.90
43665;DHT22;29263;48.172;11.484;2023-03-24T00:57:56;12.10;99.90
43665;DHT22;29263;48.172;11.484;2023-03-24T01:00:24;12.00;99.90
43665;DHT22;29263;48.172;11.484;2023-03-24T01:02:53;12.00;99.90
43665;DHT22;29263;48.172;11.484;2023-03-24T01:05:20;12.00;99.90
43665;DHT22;29263;48.172;11.484;2023-03-24T01:07:46;12.10;99.90
43665;DHT22;29263;48.172;11.484;2023-03-24T01:10:18;12.00;99.90
43665;DHT22;29263;48.172;11.484;2023-03-24T01:12:44;12.00;99.90
43665;DHT22;29263;48.172;11.484;2023-03-24T01:15:19;12.00;99.90
43665;DHT22;29263;48.172;11.484;2023-03-24T01:17:45;12.00;99.90
43665;DHT22;29263;48.172;11.484;2023-03-24T01:20:13;12.00;99.90
43665;DHT22;29263;48.172;11.484;2023-03-24T01:22:41;12.00;99.90
43665;DHT22;29263;48.172;11.484;2023-03-24T01:25:14;11.90;99.90
43665;DHT22;29263;48.172;11.484;2023-03-24T01:27:45;11.90;99.90
43665;DHT22;29263;48.172;11.484;2023-03-24T01:30:23;11.90;99.90
43665;DHT22;29263;48.172;11.484;2023-03-24T01:32:50;11.80;99.90
43665;DHT22;29263;48.172;11.484;2023-03-24T01:35:16;11.80;99.90
43665;DHT22;29263;48.172;11.484;2023-03-24T01:37:42;11.70;99.90
43665;DHT22;29263;48.172;11.484;2023-03-24T01:40:11;11.70;99.90
43665;DHT22;29263;48.172;11.484;2023-03-24T01:42:40;11.70;99.90
43665;DHT22;29263;48.172;11.484;2023-03-24T01:48:03;11.60;99.90
43665;DHT22;29263;48.172;11.484;2023-03-24T01:50:30;11.60;99.90
43665;DHT22;29263;48.172;11.484;2023-03-24T01:52:57;11.60;99.90
43665;DHT22;29263;48.172;11.484;2023-03-24T01:55:23;11.60;99.90
43665;DHT22;29263;48.172;11.484;2023-03-24T01:57:52;11.60;99.90
43665;DHT22;29263;48.172;11.484;2023-03-24T02:00:19;11.50;99.90
43665;DHT22;29263;48.172;11.484;2023-03-24T02:02:50;11.50;99.90
43665;DHT22;29263;48.172;11.484;2023-03-24T02:05:21;11.60;99.90
43665;DHT22;29263;48.172;11.484;2023-03-24T02:07:52;11.60;99.90
43665;DHT22;29263;48.172;11.484;2023-03-24T02:10:19;11.60;99.90
43665;DHT22;29263;48.172;11.484;2023-03-24T02:12:45;11.60;99.90
43665;DHT22;29263;48.172;11.484;2023-03-24T02:15:13;11.50;99.90
43665;DHT22;29263;48.172;11.484;2023-03-24T02:18:12;11.50;99.90
43665;DHT22;29263;48.172;11.484;2023-03-24T02:24:02;11.50;99.90
43665;DHT22;29263;48.172;11.484;2023-03-24T02:26:46;11.50;99.90
43665;DHT22;29263;48.172;11.484;2023-03-24T02:40:59;11.40;99.90
43665;DHT22;29263;48.172;11.484;2023-03-24T02:48:58;11.40;99.90
43665;DHT22;29263;48.172;11.484;2023-03-24T02:57:39;11.40;99.90
43665;DHT22;29263;48.172;11.484;2023-03-24T03:00:13;11.40;99.90
43665;DHT22;29263;48.172;11.484;2023-03-24T03:02:49;11.30;99.90
43665;DHT22;29263;48.172;11.484;2023-03-24T03:05:30;11.30;99.90
43665;DHT22;29263;48.172;11.484;2023-03-24T03:08:00;11.30;99.90
43665;DHT22;29263;48.172;11.484;2023-03-24T03:10:30;11.30;99.90
43665;DHT22;29263;48.172;11.484;2023-03-24T03:13:00;11.30;99.90
43665;DHT22;29263;48.172;11.484;2023-03-24T03:15:33;11.30;99.90
43665;DHT22;29263;48.172;11.484;2023-03-24T03:20:41;11.20;99.90
43665;DHT22;29263;48.172;11.484;2023-03-24T03:23:16;11.20;99.90
43665;DHT22;29263;48.172;11.484;2023-03-24T03:25:46;11.20;99.90
43665;DHT22;29263;48.172;11.484;2023-03-24T03:28:19;11.20;99.90
43665;DHT22;29263;48.172;11.484;2023-03-24T03:30:52;11.20;99.90
43665;DHT22;29263;48.172;11.484;2023-03-24T03:33:24;11.20;99.90
43665;DHT22;29263;48.172;11.484;2023-03-24T03:36:13;11.10;99.90
43665;DHT22;29263;48.172;11.484;2023-03-24T03:41:18;11.00;99.90
43665;DHT22;29263;48.172;11.484;2023-03-24T03:43:46;10.90;99.90
43665;DHT22;29263;48.172;11.484;2023-03-24T03:46:12;10.90;99.90
43665;DHT22;29263;48.172;11.484;2023-03-24T03:48:39;11.00;99.90
43665;DHT22;29263;48.172;11.484;2023-03-24T03:51:05;11.00;99.90
43665;DHT22;29263;48.172;11.484;2023-03-24T03:53:47;11.00;99.90
43665;DHT22;29263;48.172;11.484;2023-03-24T03:56:18;10.90;99.90
43665;DHT22;29263;48.172;11.484;2023-03-24T03:58:45;10.90;99.90
43665;DHT22;29263;48.172;11.484;2023-03-24T04:01:17;10.90;99.90
43665;DHT22;29263;48.172;11.484;2023-03-24T04:06:40;11.00;99.90
43665;DHT22;29263;48.172;11.484;2023-03-24T04:09:45;11.00;99.90
43665;DHT22;29263;48.172;11.484;2023-03-24T04:18:05;10.90;99.90
43665;DHT22;29263;48.172;11.484;2023-03-24T04:20:42;10.90;99.90
43665;DHT22;29263;48.172;11.484;2023-03-24T04:23:23;10.90;99.90
43665;DHT22;29263;48.172;11.484;2023-03-24T04:26:05;10.90;99.90
43665;DHT22;29263;48.172;11.484;2023-03-24T04:28:44;10.90;99.90
43665;DHT22;29263;48.172;11.484;2023-03-24T04:36:43;10.90;99.90
43665;DHT22;29263;48.172;11.484;2023-03-24T04:39:13;10.90;99.90
43665;DHT22;29263;48.172;11.484;2023-03-24T04:41:41;10.90;99.90
43665;DHT22;29263;48.172;11.484;2023-03-24T04:44:09;10.90;99.90
43665;DHT22;29263;48.172;11.484;2023-03-24T04:46:36;10.90;99.90
43665;DHT22;29263;48.172;11.484;2023-03-24T04:49:03;10.90;99.90
43665;DHT22;29263;48.172;11.484;2023-03-24T04:51:30;10.90;99.90
43665;DHT22;29263;48.172;11.484;2023-03-24T04:53:55;10.90;99.90
43665;DHT22;29263;48.172;11.484;2023-03-24T04:56:28;10.90;99.90
43665;DHT22;29263;48.172;11.484;2023-03-24T04:58:54;11.00;99.90
43665;DHT22;29263;48.172;11.484;2023-03-24T05:01:21;11.00;99.90
43665;DHT22;29263;48.172;11.484;2023-03-24T05:03:47;11.10;99.90
43665;DHT22;29263;48.172;11.484;2023-03-24T05:06:13;11.10;99.90
43665;DHT22;29263;48.172;11.484;2023-03-24T05:08:42;11.10;99.90
43665;DHT22;29263;48.172;11.484;2023-03-24T05:11:07;11.20;99.90
43665;DHT22;29263;48.172;11.484;2023-03-24T05:13:33;11.20;99.90
43665;DHT22;29263;48.172;11.484;2023-03-24T05:15:59;11.20;99.90
43665;DHT22;29263;48.172;11.484;2023-03-24T05:18:25;11.20;99.90
43665;DHT22;29263;48.172;11.484;2023-03-24T05:20:50;11.20;99.90
43665;DHT22;29263;48.172;11.484;2023-03-24T05:23:18;11.20;99.90
43665;DHT22;29263;48.172;11.484;2023-03-24T05:25:47;11.20;99.90
43665;DHT22;29263;48.172;11.484;2023-03-24T05:28:13;11.20;99.90
43665;DHT22;29263;48.172;11.484;2023-03-24T05:30:38;11.20;99.90
43665;DHT22;29263;48.172;11.484;2023-03-24T05:33:05;11.20;99.90
43665;DHT22;29263;48.172;11.484;2023-03-24T05:35:30;11.20;99.90
43665;DHT22;29263;48.172;11.484;2023-03-24T05:37:56;11.30;99.90
43665;DHT22;29263;48.172;11.484;2023-03-24T05:40:21;11.30;99.90
43665;DHT22;29263;48.172;11.484;2023-03-24T05:42:49;11.30;99.90
43665;DHT22;29263;48.172;11.484;2023-03-24T05:45:15;11.20;99.90
43665;DHT22;29263;48.172;11.484;2023-03-24T05:47:41;11.30;99.90
43665;DHT22;29263;48.172;11.484;2023-03-24T05:50:07;11.30;99.90
43665;DHT22;29263;48.172;11.484;2023-03-24T05:52:33;11.30;99.90
43665;DHT22;29263;48.172;11.484;2023-03-24T05:55:00;11.30;99.90
43665;DHT22;29263;48.172;11.484;2023-03-24T05:57:25;11.30;99.90
43665;DHT22;29263;48.172;11.484;2023-03-24T05:59:57;11.30;99.90
43665;DHT22;29263;48.172;11.484;2023-03-24T06:02:23;11.20;99.90
43665;DHT22;29263;48.172;11.484;2023-03-24T06:04:53;11.20;99.90
43665;DHT22;29263;48.172;11.484;2023-03-24T06:07:22;11.20;99.90
43665;DHT22;29263;48.172;11.484;2023-03-24T06:09:51;11.10;99.90
43665;DHT22;29263;48.172;11.484;2023-03-24T06:12:17;11.10;99.90
43665;DHT22;29263;48.172;11.484;2023-03-24T06:14:43;11.10;99.90
43665;DHT22;29263;48.172;11.484;2023-03-24T06:17:10;11.20;99.90
43665;DHT22;29263;48.172;11.484;2023-03-24T06:19:40;11.20;99.90
43665;DHT22;29263;48.172;11.484;2023-03-24T06:22:17;11.20;99.90
43665;DHT22;29263;48.172;11.484;2023-03-24T06:24:43;11.10;99.90
43665;DHT22;29263;48.172;11.484;2023-03-24T06:27:10;11.10;99.90
43665;DHT22;29263;48.172;11.484;2023-03-24T06:29:36;11.10;99.90
43665;DHT22;29263;48.172;11.484;2023-03-24T06:32:02;11.10;99.90
43665;DHT22;29263;48.172;11.484;2023-03-24T06:34:30;11.10;99.90
43665;DHT22;29263;48.172;11.484;2023-03-24T06:36:56;11.10;99.90
43665;DHT22;29263;48.172;11.484;2023-03-24T06:39:22;11.20;99.90
43665;DHT22;29263;48.172;11.484;2023-03-24T06:41:48;11.10;99.90
43665;DHT22;29263;48.172;11.484;2023-03-24T06:44:13;11.20;99.90
43665;DHT22;29263;48.172;11.484;2023-03-24T06:46:40;11.20;99.90
43665;DHT22;29263;48.172;11.484;2023-03-24T06:49:06;11.20;99.90
43665;DHT22;29263;48.172;11.484;2023-03-24T06:51:32;11.20;99.90
43665;DHT22;29263;48.172;11.484;2023-03-24T06:53:58;11.20;99.90
43665;DHT22;29263;48.172;11.484;2023-03-24T06:56:23;11.20;99.90
43665;DHT22;29263;48.172;11.484;2023-03-24T06:58:49;11.20;99.90
43665;DHT22;29263;48.172;11.484;2023-03-24T07:01:15;11.20;99.90
43665;DHT22;29263;48.172;11.484;2023-03-24T07:03:41;11.20;99.90
43665;DHT22;29263;48.172;11.484;2023-03-24T07:06:08;11.30;99.90
43665;DHT22;29263;48.172;11.484;2023-03-24T07:08:35;11.30;99.90
43665;DHT22;29263;48.172;11.484;2023-03-24T07:11:03;11.30;99.90
43665;DHT22;29263;48.172;11.484;2023-03-24T07:13:29;11.30;99.90
43665;DHT22;29263;48.172;11.484;2023-03-24T07:15:55;11.30;99.90
43665;DHT22;29263;48.172;11.484;2023-03-24T07:18:20;11.40;99.90
43665;DHT22;29263;48.172;11.484;2023-03-24T07:20:46;11.30;99.90
43665;DHT22;29263;48.172;11.484;2023-03-24T07:23:12;11.40;99.90
43665;DHT22;29263;48.172;11.484;2023-03-24T07:25:41;11.40;99.90
43665;DHT22;29263;48.172;11.484;2023-03-24T07:28:07;11.40;99.90
43665;DHT22;29263;48.172;11.484;2023-03-24T07:30:33;11.40;99.90
43665;DHT22;29263;48.172;11.484;2023-03-24T07:33:03;11.40;99.90
43665;DHT22;29263;48.172;11.484;2023-03-24T07:35:29;11.40;99.90
43665;DHT22;29263;48.172;11.484;2023-03-24T07:37:59;11.50;99.90
43665;DHT22;29263;48.172;11.484;2023-03-24T07:40:25;11.50;99.90
43665;DHT22;29263;48.172;11.484;2023-03-24T07:42:50;11.50;99.90
43665;DHT22;29263;48.172;11.484;2023-03-24T07:45:16;11.60;99.90
43665;DHT22;29263;48.172;11.484;2023-03-24T07:47:43;11.60;99.90
43665;DHT22;29263;48.172;11.484;2023-03-24T07:50:10;11.60;99.90
43665;DHT22;29263;48.172;11.484;2023-03-24T07:52:37;11.70;99.90
43665;DHT22;29263;48.172;11.484;2023-03-24T07:55:05;11.70;99.90
43665;DHT22;29263;48.172;11.484;2023-03-24T07:57:33;11.70;99.90
43665;DHT22;29263;48.172;11.484;2023-03-24T08:00:06;11.70;99.90
43665;DHT22;29263;48.172;11.484;2023-03-24T08:02:50;11.70;99.90
43665;DHT22;29263;48.172;11.484;2023-03-24T08:05:21;11.70;99.90
43665;DHT22;29263;48.172;11.484;2023-03-24T08:07:49;11.70;99.90
43665;DHT22;29263;48.172;11.484;2023-03-24T08:10:19;11.70;99.90
43665;DHT22;29263;48.172;11.484;2023-03-24T08:12:46;11.80;99.90
43665;DHT22;29263;48.172;11.484;2023-03-24T08:15:12;11.80;99.90
43665;DHT22;29263;48.172;11.484;2023-03-24T08:17:38;11.80;99.90
43665;DHT22;29263;48.172;11.484;2023-03-24T08:20:04;11.90;99.90
43665;DHT22;29263;48.172;11.484;2023-03-24T08:22:39;11.90;99.90
43665;DHT22;29263;48.172;11.484;2023-03-24T08:25:05;12.00;99.90
43665;DHT22;29263;48.172;11.484;2023-03-24T08:27:31;12.00;99.90
43665;DHT22;29263;48.172;11.484;2023-03-24T08:29:57;12.10;99.90
43665;DHT22;29263;48.172;11.484;2023-03-24T08:32:23;12.10;99.90
43665;DHT22;29263;48.172;11.484;2023-03-24T08:34:48;12.20;99.90
43665;DHT22;29263;48.172;11.484;2023-03-24T08:37:14;12.20;99.90
43665;DHT22;29263;48.172;11.484;2023-03-24T08:39:40;12.30;99.90
43665;DHT22;29263;48.172;11.484;2023-03-24T08:42:05;12.40;99.90
43665;DHT22;29263;48.172;11.484;2023-03-24T08:44:31;12.40;99.90
43665;DHT22;29263;48.172;11.484;2023-03-24T08:46:56;12.50;99.90
43665;DHT22;29263;48.172;11.484;2023-03-24T08:49:24;12.60;99.90
43665;DHT22;29263;48.172;11.484;2023-03-24T08:51:50;12.70;99.90
43665;DHT22;29263;48.172;11.484;2023-03-24T08:54:15;12.70;99.90
43665;DHT22;29263;48.172;11.484;2023-03-24T08:56:41;12.80;99.90
43665;DHT22;29263;48.172;11.484;2023-03-24T08:59:06;12.70;99.90
43665;DHT22;29263;48.172;11.484;2023-03-24T09:01:32;12.70;99.90
43665;DHT22;29263;48.172;11.484;2023-03-24T09:03:59;12.70;99.90
43665;DHT22;29263;48.172;11.484;2023-03-24T09:06:25;12.80;99.90
43665;DHT22;29263;48.172;11.484;2023-03-24T09:08:52;12.90;99.90
43665;DHT22;29263;48.172;11.484;2023-03-24T09:11:20;12.90;99.90
43665;DHT22;29263;48.172;11.484;2023-03-24T09:13:47;13.00;99.90
43665;DHT22;29263;48.172;11.484;2023-03-24T09:16:13;13.00;99.90
43665;DHT22;29263;48.172;11.484;2023-03-24T09:18:39;13.20;99.90
43665;DHT22;29263;48.172;11.484;2023-03-24T09:21:05;13.20;99.90
43665;DHT22;29263;48.172;11.484;2023-03-24T09:23:31;13.50;99.90
43665;DHT22;29263;48.172;11.484;2023-03-24T09:25:58;13.60;99.90
43665;DHT22;29263;48.172;11.484;2023-03-24T09:28:23;13.70;99.90
43665;DHT22;29263;48.172;11.484;2023-03-24T09:30:49;13.70;99.90
43665;DHT22;29263;48.172;11.484;2023-03-24T09:33:15;13.70;99.90
43665;DHT22;29263;48.172;11.484;2023-03-24T09:35:41;13.80;99.90
43665;DHT22;29263;48.172;11.484;2023-03-24T09:38:07;13.80;99.90
43665;DHT22;29263;48.172;11.484;2023-03-24T09:40:37;13.70;99.90
43665;DHT22;29263;48.172;11.484;2023-03-24T09:43:07;13.60;99.90
43665;DHT22;29263;48.172;11.484;2023-03-24T09:46:03;13.60;99.90
43665;DHT22;29263;48.172;11.484;2023-03-24T09:48:34;13.50;99.90
43665;DHT22;29263;48.172;11.484;2023-03-24T09:51:28;13.50;99.90
43665;DHT22;29263;48.172;11.484;2023-03-24T09:56:37;13.30;99.90
43665;DHT22;29263;48.172;11.484;2023-03-24T09:59:33;13.20;99.90
43665;DHT22;29263;48.172;11.484;2023-03-24T10:02:00;13.20;99.90
43665;DHT22;29263;48.172;11.484;2023-03-24T10:04:29;13.20;99.90
43665;DHT22;29263;48.172;11.484;2023-03-24T10:07:17;13.10;99.90
43665;DHT22;29263;48.172;11.484;2023-03-24T10:09:47;13.10;99.90
43665;DHT22;29263;48.172;11.484;2023-03-24T10:18:00;13.10;99.90
43665;DHT22;29263;48.172;11.484;2023-03-24T10:20:46;13.10;99.90
43665;DHT22;29263;48.172;11.484;2023-03-24T10:23:37;13.00;99.90
43665;DHT22;29263;48.172;11.484;2023-03-24T10:29:12;13.20;99.90
43665;DHT22;29263;48.172;11.484;2023-03-24T10:31:46;13.20;99.90
43665;DHT22;29263;48.172;11.484;2023-03-24T10:34:12;13.20;99.90
43665;DHT22;29263;48.172;11.484;2023-03-24T10:36:39;13.20;99.90
43665;DHT22;29263;48.172;11.484;2023-03-24T10:39:14;13.20;99.90
43665;DHT22;29263;48.172;11.484;2023-03-24T10:41:42;13.20;99.90
43665;DHT22;29263;48.172;11.484;2023-03-24T10:44:08;13.30;99.90
43665;DHT22;29263;48.172;11.484;2023-03-24T10:46:39;13.30;99.90
43665;DHT22;29263;48.172;11.484;2023-03-24T10:51:36;13.30;99.90
43665;DHT22;29263;48.172;11.484;2023-03-24T10:54:31;13.40;99.90
43665;DHT22;29263;48.172;11.484;2023-03-24T10:59:29;13.30;99.90
43665;DHT22;29263;48.172;11.484;2023-03-24T11:04:35;13.40;99.90
43665;DHT22;29263;48.172;11.484;2023-03-24T11:07:12;13.50;99.90
43665;DHT22;29263;48.172;11.484;2023-03-24T11:09:42;13.50;99.90
43665;DHT22;29263;48.172;11.484;2023-03-24T11:12:26;13.50;99.90
43665;DHT22;29263;48.172;11.484;2023-03-24T11:15:21;13.50;99.90
43665;DHT22;29263;48.172;11.484;2023-03-24T11:21:00;13.30;99.90
43665;DHT22;29263;48.172;11.484;2023-03-24T11:23:37;13.20;99.90
43665;DHT22;29263;48.172;11.484;2023-03-24T11:26:11;13.00;99.90
43665;DHT22;29263;48.172;11.484;2023-03-24T11:28:54;13.00;99.90
43665;DHT22;29263;48.172;11.484;2023-03-24T11:31:32;12.90;99.90
43665;DHT22;29263;48.172;11.484;2023-03-24T11:39:12;13.10;99.90
43665;DHT22;29263;48.172;11.484;2023-03-24T11:41:42;13.20;99.90
43665;DHT22;29263;48.172;11.484;2023-03-24T11:44:18;13.50;99.90
43665;DHT22;29263;48.172;11.484;2023-03-24T11:46:45;13.70;99.90
43665;DHT22;29263;48.172;11.484;2023-03-24T11:49:17;13.80;99.90
43665;DHT22;29263;48.172;11.484;2023-03-24T11:51:45;13.90;99.90
43665;DHT22;29263;48.172;11.484;2023-03-24T11:54:13;14.00;99.90
43665;DHT22;29263;48.172;11.484;2023-03-24T11:56:43;14.10;99.90
43665;DHT22;29263;48.172;11.484;2023-03-24T11:59:32;14.30;99.90
43665;DHT22;29263;48.172;11.484;2023-03-24T12:02:14;14.40;99.90
43665;DHT22;29263;48.172;11.484;2023-03-24T12:08:05;14.70;99.90
43665;DHT22;29263;48.172;11.484;2023-03-24T12:13:13;15.10;99.90
43665;DHT22;29263;48.172;11.484;2023-03-24T12:30:18;15.60;99.90
43665;DHT22;29263;48.172;11.484;2023-03-24T12:39:30;15.70;95.50
43665;DHT22;29263;48.172;11.484;2023-03-24T12:42:06;15.70;98.60
43665;DHT22;29263;48.172;11.484;2023-03-24T12:48:10;15.70;86.30
43665;DHT22;29263;48.172;11.484;2023-03-24T12:56:30;15.70;81.80
43665;DHT22;29263;48.172;11.484;2023-03-24T12:59:26;15.60;81.40
43665;DHT22;29263;48.172;11.484;2023-03-24T13:02:11;15.50;80.20
43665;DHT22;29263;48.172;11.484;2023-03-24T13:04:43;15.50;83.80
43665;DHT22;29263;48.172;11.484;2023-03-24T13:07:12;15.50;89.70
43665;DHT22;29263;48.172;11.484;2023-03-24T13:09:52;15.20;90.20
43665;DHT22;29263;48.172;11.484;2023-03-24T13:12:23;15.00;99.30
43665;DHT22;29263;48.172;11.484;2023-03-24T13:15:37;14.80;99.10
43665;DHT22;29263;48.172;11.484;2023-03-24T13:18:15;14.50;99.90
43665;DHT22;29263;48.172;11.484;2023-03-24T13:23:33;14.30;99.90
43665;DHT22;29263;48.172;11.484;2023-03-24T13:28:59;14.30;99.90
43665;DHT22;29263;48.172;11.484;2023-03-24T13:31:30;14.30;99.90
43665;DHT22;29263;48.172;11.484;2023-03-24T13:33:59;14.30;99.90
43665;DHT22;29263;48.172;11.484;2023-03-24T13:36:52;14.30;99.90
43665;DHT22;29263;48.172;11.484;2023-03-24T13:39:21;14.40;99.90
43665;DHT22;29263;48.172;11.484;2023-03-24T13:41:51;14.40;99.90
43665;DHT22;29263;48.172;11.484;2023-03-24T13:44:24;14.40;99.90
43665;DHT22;29263;48.172;11.484;2023-03-24T13:47:07;14.30;99.90
43665;DHT22;29263;48.172;11.484;2023-03-24T13:49:34;14.30;99.90
43665;DHT22;29263;48.172;11.484;2023-03-24T13:52:04;14.30;99.90
43665;DHT22;29263;48.172;11.484;2023-03-24T13:54:32;14.30;99.90
43665;DHT22;29263;48.172;11.484;2023-03-24T13:57:07;14.20;99.90
43665;DHT22;29263;48.172;11.484;2023-03-24T13:59:58;14.30;99.90
43665;DHT22;29263;48.172;11.484;2023-03-24T14:02:50;14.30;99.90
43665;DHT22;29263;48.172;11.484;2023-03-24T14:08:09;14.20;99.90
43665;DHT22;29263;48.172;11.484;2023-03-24T14:15:52;14.10;99.90
43665;DHT22;29263;48.172;11.484;2023-03-24T14:26:05;14.00;99.90
43665;DHT22;29263;48.172;11.484;2023-03-24T14:28:45;14.00;99.90
43665;DHT22;29263;48.172;11.484;2023-03-24T14:33:43;14.00;99.90
43665;DHT22;29263;48.172;11.484;2023-03-24T14:36:35;14.00;99.10
43665;DHT22;29263;48.172;11.484;2023-03-24T14:39:25;14.00;97.30
43665;DHT22;29263;48.172;11.484;2023-03-24T14:41:52;14.00;99.60
43665;DHT22;29263;48.172;11.484;2023-03-24T14:47:19;13.90;98.10
43665;DHT22;29263;48.172;11.484;2023-03-24T14:49:47;13.90;96.90
43665;DHT22;29263;48.172;11.484;2023-03-24T14:52:34;13.90;97.00
43665;DHT22;29263;48.172;11.484;2023-03-24T14:55:06;13.90;95.70
43665;DHT22;29263;48.172;11.484;2023-03-24T14:57:41;13.90;96.90
43665;DHT22;29263;48.172;11.484;2023-03-24T15:02:55;14.00;97.00
43665;DHT22;29263;48.172;11.484;2023-03-24T15:05:29;14.10;96.90
43665;DHT22;29263;48.172;11.484;2023-03-24T15:08:19;14.10;96.30
43665;DHT22;29263;48.172;11.484;2023-03-24T15:11:06;14.20;94.50
43665;DHT22;29263;48.172;11.484;2023-03-24T15:13:40;14.20;94.50
43665;DHT22;29263;48.172;11.484;2023-03-24T15:21:14;14.20;95.60
43665;DHT22;29263;48.172;11.484;2023-03-24T15:23:45;14.10;95.10
43665;DHT22;29263;48.172;11.484;2023-03-24T15:26:13;14.10;96.00
43665;DHT22;29263;48.172;11.484;2023-03-24T15:28:38;14.00;96.20
43665;DHT22;29263;48.172;11.484;2023-03-24T15:31:05;13.90;96.10
43665;DHT22;29263;48.172;11.484;2023-03-24T15:33:38;13.90;98.90
43665;DHT22;29263;48.172;11.484;2023-03-24T15:36:13;13.80;97.30
43665;DHT22;29263;48.172;11.484;2023-03-24T15:38:44;13.80;96.00
43665;DHT22;29263;48.172;11.484;2023-03-24T15:41:12;13.70;97.50
43665;DHT22;29263;48.172;11.484;2023-03-24T15:43:49;13.70;97.70
43665;DHT22;29263;48.172;11.484;2023-03-24T15:46:29;13.70;96.10
43665;DHT22;29263;48.172;11.484;2023-03-24T15:48:58;13.60;97.10
43665;DHT22;29263;48.172;11.484;2023-03-24T15:51:54;13.60;97.80
43665;DHT22;29263;48.172;11.484;2023-03-24T15:54:23;13.60;98.60
43665;DHT22;29263;48.172;11.484;2023-03-24T15:57:15;13.50;99.80
43665;DHT22;29263;48.172;11.484;2023-03-24T16:02:21;13.30;99.90
43665;DHT22;29263;48.172;11.484;2023-03-24T16:04:47;13.20;99.90
43665;DHT22;29263;48.172;11.484;2023-03-24T16:07:29;13.10;99.90
43665;DHT22;29263;48.172;11.484;2023-03-24T16:09:58;13.00;99.90
43665;DHT22;29263;48.172;11.484;2023-03-24T16:12:33;12.90;99.90
43665;DHT22;29263;48.172;11.484;2023-03-24T16:15:02;12.80;99.90
43665;DHT22;29263;48.172;11.484;2023-03-24T16:17:30;12.80;99.90
43665;DHT22;29263;48.172;11.484;2023-03-24T16:20:00;12.60;99.90
43665;DHT22;29263;48.172;11.484;2023-03-24T16:22:25;12.50;99.90
43665;DHT22;29263;48.172;11.484;2023-03-24T16:24:51;12.30;99.90
43665;DHT22;29263;48.172;11.484;2023-03-24T16:27:17;12.10;99.90
43665;DHT22;29263;48.172;11.484;2023-03-24T16:29:42;12.10;99.90
43665;DHT22;29263;48.172;11.484;2023-03-24T16:32:09;12.00;99.90
43665;DHT22;29263;48.172;11.484;2023-03-24T16:34:34;11.90;99.90
43665;DHT22;29263;48.172;11.484;2023-03-24T16:37:01;11.80;99.90
43665;DHT22;29263;48.172;11.484;2023-03-24T16:39:29;11.80;99.90
43665;DHT22;29263;48.172;11.484;2023-03-24T16:41:56;11.80;99.90
43665;DHT22;29263;48.172;11.484;2023-03-24T16:44:22;11.80;99.90
43665;DHT22;29263;48.172;11.484;2023-03-24T16:46:50;11.70;99.90
43665;DHT22;29263;48.172;11.484;2023-03-24T16:49:19;11.70;99.90
43665;DHT22;29263;48.172;11.484;2023-03-24T16:51:46;11.70;99.90
43665;DHT22;29263;48.172;11.484;2023-03-24T16:54:12;11.70;99.90
43665;DHT22;29263;48.172;11.484;2023-03-24T16:56:38;11.60;99.90
43665;DHT22;29263;48.172;11.484;2023-03-24T16:59:04;11.60;99.90
43665;DHT22;29263;48.172;11.484;2023-03-24T17:01:41;11.50;99.90
43665;DHT22;29263;48.172;11.484;2023-03-24T17:04:15;11.50;99.90
43665;DHT22;29263;48.172;11.484;2023-03-24T17:06:44;11.50;99.90
43665;DHT22;29263;48.172;11.484;2023-03-24T17:09:11;11.50;99.90
43665;DHT22;29263;48.172;11.484;2023-03-24T17:11:43;11.40;99.90
43665;DHT22;29263;48.172;11.484;2023-03-24T17:14:11;11.40;99.90
43665;DHT22;29263;48.172;11.484;2023-03-24T17:16:39;11.40;99.90
43665;DHT22;29263;48.172;11.484;2023-03-24T17:19:11;11.30;99.90
43665;DHT22;29263;48.172;11.484;2023-03-24T17:21:39;11.30;99.90
43665;DHT22;29263;48.172;11.484;2023-03-24T17:24:06;11.30;99.90
43665;DHT22;29263;48.172;11.484;2023-03-24T17:26:36;11.30;99.90
43665;DHT22;29263;48.172;11.484;2023-03-24T17:29:02;11.30;99.90
43665;DHT22;29263;48.172;11.484;2023-03-24T17:31:28;11.20;99.90
43665;DHT22;29263;48.172;11.484;2023-03-24T17:33:54;11.30;99.90
43665;DHT22;29263;48.172;11.484;2023-03-24T17:36:20;11.20;99.90
43665;DHT22;29263;48.172;11.484;2023-03-24T17:38:45;11.20;99.90
43665;DHT22;29263;48.172;11.484;2023-03-24T17:41:34;11.20;99.90
43665;DHT22;29263;48.172;11.484;2023-03-24T17:43:59;11.20;99.90
43665;DHT22;29263;48.172;11.484;2023-03-24T17:46:25;11.20;99.90
43665;DHT22;29263;48.172;11.484;2023-03-24T17:48:51;11.20;99.90
43665;DHT22;29263;48.172;11.484;2023-03-24T17:51:16;11.20;99.90
43665;DHT22;29263;48.172;11.484;2023-03-24T17:53:42;11.20;99.90
43665;DHT22;29263;48.172;11.484;2023-03-24T17:56:09;11.20;99.90
43665;DHT22;29263;48.172;11.484;2023-03-24T17:58:36;11.20;99.90
43665;DHT22;29263;48.172;11.484;2023-03-24T18:01:03;11.20;99.90
43665;DHT22;29263;48.172;11.484;2023-03-24T18:03:31;11.30;99.90
43665;DHT22;29263;48.172;11.484;2023-03-24T18:06:10;11.20;99.90
43665;DHT22;29263;48.172;11.484;2023-03-24T18:08:36;11.20;99.90